Time;durP1;ratioP1;P1;durP2;ratioP2;P2;SDS_P1;SDS_P2;PMS_P1;PMS_P2;Temp;Humidity;BMP_temperature;BMP_pressure;BME280_temperature;BME280_humidity;BME280_pressure;Samples;Min_cycle;Max_cycle;Signal;HPM_P1;HPM_P2
2022/12/06 00:04:25;;;;;;;13.60;3.88;;;4.30;99.90;;;;;;6248727;22;20019;-86
2022/12/06 00:08:33;;;;;;;;;;;;;;;;;;;;;
2022/12/06 00:23:05;;;;;;;;;;;;;;;;;;;;;
2022/12/06 00:30:15;;;;;;;;;;;;;;;;;;;;;
2022/12/06 00:33:05;;;;;;;;;;;;;;;;;;;;;
2022/12/06 00:39:33;;;;;;;17.42;4.68;;;4.50;99.90;;;;;;6190555;22;20061;-86
2022/12/06 00:42:35;;;;;;;11.45;4.05;;;4.70;99.90;;;;;;6264648;22;20069;-86
2022/12/06 00:45:08;;;;;;;12.00;3.90;;;4.70;99.90;;;;;;6274188;22;20019;-85
2022/12/06 00:47:42;;;;;;;10.27;3.88;;;4.70;99.90;;;;;;6300313;22;20084;-86
2022/12/06 00:50:24;;;;;;;;;;;;;;;;;;;;;
2022/12/06 00:53:00;;;;;;;7.63;2.10;;;4.70;99.90;;;;;;6300272;22;20077;-86
2022/12/06 00:55:28;;;;;;;9.80;2.83;;;4.70;99.90;;;;;;6275256;22;20015;-85
2022/12/06 00:57:57;;;;;;;9.05;2.33;;;4.60;99.90;;;;;;6301324;22;20240;-85
2022/12/06 01:00:23;;;;;;;14.02;4.80;;;4.50;99.90;;;;;;6274738;22;20351;-85
2022/12/06 01:02:48;;;;;;;11.48;2.80;;;4.30;99.90;;;;;;6300108;22;20021;-86
2022/12/06 01:05:34;;;;;;;;;;;;;;;;;;;;;
2022/12/06 01:08:03;;;;;;;10.38;2.38;;;4.70;99.90;;;;;;6299283;22;20022;-86
2022/12/06 01:10:29;;;;;;;8.38;2.10;;;4.50;99.90;;;;;;6302079;22;20015;-86
2022/12/06 01:13:10;;;;;;;;;;;;;;;;;;;;;
2022/12/06 01:15:49;;;;;;;5.57;1.75;;;4.50;99.90;;;;;;6301246;22;20016;-86
2022/12/06 01:18:25;;;;;;;;;;;4.50;99.90;;;;;;6274591;22;20515;-86
2022/12/06 01:21:21;;;;;;;6.25;1.92;;;5.60;99.90;;;;;;6300440;22;20465;-87
2022/12/06 01:23:50;;;;;;;10.20;1.80;;;4.40;99.90;;;;;;6300527;22;20017;-86
2022/12/06 01:26:39;;;;;;;10.93;2.00;;;5.20;99.90;;;;;;6300657;22;20409;-87
2022/12/06 01:29:44;;;;;;;;;;;;;;;;;;;;;
2022/12/06 01:32:43;;;;;;;5.57;1.50;;;5.50;99.90;;;;;;6242764;22;20345;-86
2022/12/06 01:39:15;;;;;;;;;;;;;;;;;;;;;
2022/12/06 01:41:43;;;;;;;6.75;1.48;;;4.80;99.90;;;;;;6241671;22;20065;-87
2022/12/06 01:45:34;;;;;;;;;;;;;;;;;;;;;
2022/12/06 01:48:07;;;;;;;;;;;;;;;;;;;;;
2022/12/06 01:54:34;;;;;;;7.80;1.80;;;4.90;99.90;;;;;;6216963;22;20043;-86
2022/12/06 01:57:09;;;;;;;;;;;;;;;;;;;;;
2022/12/06 02:03:46;;;;;;;;;;;;;;;;;;;;;
2022/12/06 02:06:40;;;;;;;6.00;1.65;;;5.00;99.90;;;;;;6244189;22;20019;-86
2022/12/06 02:12:45;;;;;;;5.68;1.77;;;5.20;99.90;;;;;;6095638;22;20504;-86
2022/12/06 02:15:50;;;;;;;;;;;;;;;;;;;;;
2022/12/06 02:19:41;;;;;;;;;;;;;;;;;;;;;
2022/12/06 02:22:38;;;;;;;5.95;1.38;;;4.30;99.90;;;;;;6225194;22;20019;-87
2022/12/06 02:28:58;;;;;;;5.75;1.55;;;4.40;99.90;;;;;;6187715;22;20026;-87
2022/12/06 02:42:46;;;;;;;5.27;1.73;;;4.40;99.90;;;;;;6126261;22;20038;-87
2022/12/06 02:45:52;;;;;;;6.45;2.10;;;4.10;99.90;;;;;;6219652;22;20574;-87
2022/12/06 02:59:21;;;;;;;;;;;;;;;;;;;;;
2022/12/06 03:06:39;;;;;;;;;;;;;;;;;;;;;
2022/12/06 03:13:37;;;;;;;;;;;;;;;;;;;;;
2022/12/06 03:19:49;;;;;;;;;;;;;;;;;;;;;
2022/12/06 03:23:11;;;;;;;;;;;;;;;;;;;;;
2022/12/06 04:10:28;;;;;;;;;;;;;;;;;;;;;
2022/12/06 04:56:35;;;;;;;;;;;;;;;;;;;;;
2022/12/06 05:03:37;;;;;;;;;;;;;;;;;;;;;
2022/12/06 05:21:50;;;;;;;5.35;1.88;;;2.60;99.90;;;;;;6169192;22;20115;-87
2022/12/06 05:25:30;;;;;;;;;;;;;;;;;;;;;
2022/12/06 05:32:12;;;;;;;;;;;;;;;;;;;;;
2022/12/06 05:35:23;;;;;;;;;;;;;;;;;;;;;
2022/12/06 05:45:13;;;;;;;;;;;;;;;;;;;;;
2022/12/06 05:49:04;;;;;;;18.40;2.22;;;3.00;99.90;;;;;;6242308;22;20015;-87
2022/12/06 05:51:59;;;;;;;;;;;;;;;;;;;;;
2022/12/06 06:17:47;;;;;;;;;;;;;;;;;;;;;
2022/12/06 06:21:00;;;;;;;;;;;;;;;;;;;;;
2022/12/06 06:24:15;;;;;;;5.28;2.55;;;2.10;99.90;;;;;;6167879;23;20016;-87
2022/12/06 06:51:05;;;;;;;;;;;;;;;;;;;;;
2022/12/06 06:54:14;;;;;;;;;;;;;;;;;;;;;
2022/12/06 06:58:27;;;;;;;11.88;2.78;;;2.60;99.90;;;;;;6268245;22;20062;-87
2022/12/06 07:01:11;;;;;;;6.13;2.22;;;3.20;99.90;;;;;;6175039;22;20635;-86
2022/12/06 07:16:00;;;;;;;;;;;;;;;;;;;;;
2022/12/06 07:35:25;;;;;;;;;;;;;;;;;;;;;
2022/12/06 08:11:29;;;;;;;;;;;;;;;;;;;;;
2022/12/06 08:16:07;;;;;;;16.42;5.28;;;1.20;99.90;;;;;;6300793;22;20340;-85
2022/12/06 08:43:16;;;;;;;16.35;6.03;;;2.60;99.90;;;;;;6119849;23;20033;-88
2022/12/06 08:46:11;;;;;;;13.00;6.43;;;3.30;99.90;;;;;;6170913;22;20016;-90
2022/12/06 08:49:00;;;;;;;15.38;5.82;;;2.50;99.90;;;;;;6176951;22;20098;-87
2022/12/06 08:51:29;;;;;;;17.83;6.90;;;2.50;99.90;;;;;;6206461;22;20016;-86
2022/12/06 08:54:54;;;;;;;;;;;;;;;;;;;;;
2022/12/06 08:58:07;;;;;;;;;;;;;;;;;;;;;
2022/12/06 09:01:20;;;;;;;12.75;5.80;;;2.80;99.90;;;;;;6282234;22;20023;-87
2022/12/06 09:03:52;;;;;;;15.38;6.30;;;3.00;99.90;;;;;;6243840;22;20401;-88
2022/12/06 09:10:20;;;;;;;10.15;4.20;;;2.00;99.90;;;;;;6208767;22;20046;-87
2022/12/06 09:13:10;;;;;;;14.18;4.45;;;2.70;99.90;;;;;;6217284;22;20020;-88
2022/12/06 09:15:49;;;;;;;10.65;3.50;;;2.30;99.90;;;;;;6247043;22;20020;-87
2022/12/06 09:21:33;;;;;;;9.23;3.20;;;3.00;99.90;;;;;;6260708;22;20020;-86
2022/12/06 09:27:29;;;;;;;7.18;3.10;;;2.70;99.90;;;;;;6193505;22;20115;-86
2022/12/06 09:30:00;;;;;;;11.70;2.92;;;2.90;99.90;;;;;;6137529;22;20016;-86
2022/12/06 09:33:08;;;;;;;9.45;4.22;;;2.70;99.90;;;;;;6245064;22;20046;-86
2022/12/06 09:36:15;;;;;;;11.00;3.47;;;3.00;99.90;;;;;;6242931;22;20042;-87
2022/12/06 09:39:31;;;;;;;14.20;4.57;;;2.60;99.90;;;;;;6271728;22;20032;-89
2022/12/06 09:49:31;;;;;;;13.10;4.78;;;3.10;99.90;;;;;;6187134;22;19923;-87
2022/12/06 09:53:28;;;;;;;9.63;3.53;;;3.40;99.90;;;;;;6210025;23;20023;-88
2022/12/06 09:57:03;;;;;;;;;;;;;;;;;;;;;
2022/12/06 10:00:11;;;;;;;9.13;4.47;;;3.60;99.90;;;;;;6210185;23;20019;-87
2022/12/06 10:11:08;;;;;;;9.70;4.18;;;4.00;99.90;;;;;;6115775;23;20036;-88
2022/12/06 10:14:20;;;;;;;9.18;4.80;;;4.10;99.90;;;;;;6183451;23;20024;-87
2022/12/06 10:21:02;;;;;;;14.10;4.13;;;3.80;99.90;;;;;;6161538;23;20024;-87
2022/12/06 10:34:43;;;;;;;11.75;4.38;;;4.30;99.90;;;;;;6267723;22;20030;-87
2022/12/06 10:38:11;;;;;;;8.35;4.22;;;4.60;99.90;;;;;;6268979;22;20019;-86
2022/12/06 10:41:32;;;;;;;8.30;3.78;;;4.60;99.90;;;;;;6221201;22;20019;-87
2022/12/06 10:44:57;;;;;;;;;;;;;;;;;;;;;
2022/12/06 10:49:43;;;;;;;;;;;;;;;;;;;;;
2022/12/06 11:02:38;;;;;;;8.93;3.38;;;5.40;99.90;;;;;;6124317;23;20028;-87
2022/12/06 11:06:01;;;;;;;;;;;;;;;;;;;;;
2022/12/06 11:28:20;;;;;;;4.95;1.55;;;5.50;99.90;;;;;;6267682;22;20028;-86
2022/12/06 11:32:30;;;;;;;6.63;1.85;;;5.50;99.90;;;;;;6237075;22;20117;-86
2022/12/06 11:38:49;;;;;;;6.20;2.30;;;5.70;99.90;;;;;;6270543;22;20475;-88
2022/12/06 11:41:35;;;;;;;6.03;2.30;;;5.20;99.90;;;;;;6134397;22;20027;-87
2022/12/06 11:55:52;;;;;;;5.57;2.20;;;5.60;99.90;;;;;;6185292;22;20031;-87
2022/12/06 11:59:24;;;;;;;4.30;2.00;;;5.50;99.90;;;;;;6217501;22;20020;-87
2022/12/06 12:06:06;;;;;;;8.57;2.38;;;6.00;99.90;;;;;;6215003;22;20051;-86
2022/12/06 12:09:03;;;;;;;7.30;1.90;;;5.70;99.90;;;;;;6184789;23;20051;-87
2022/12/06 12:15:28;;;;;;;7.78;1.77;;;6.20;99.90;;;;;;6185708;23;20032;-87
2022/12/06 12:18:24;;;;;;;5.75;2.22;;;5.90;99.90;;;;;;6210904;23;20028;-87
2022/12/06 12:20:58;;;;;;;6.30;1.75;;;6.10;99.90;;;;;;6185876;23;20020;-87
2022/12/06 12:24:01;;;;;;;;;;;;;;;;;;;;;
2022/12/06 12:26:55;;;;;;;;;;;;;;;;;;;;;
2022/12/06 12:36:37;;;;;;;;;;;;;;;;;;;;;
2022/12/06 12:39:26;;;;;;;6.38;2.38;;;6.40;99.90;;;;;;6212994;23;20622;-87
2022/12/06 12:41:57;;;;;;;4.38;2.28;;;6.50;99.90;;;;;;6186463;23;20025;-88
2022/12/06 12:44:48;;;;;;;;;;;;;;;;;;;;;
2022/12/06 12:48:12;;;;;;;5.13;1.70;;;6.50;99.90;;;;;;6203517;23;20412;-87
2022/12/06 12:58:46;;;;;;;6.78;1.73;;;6.40;99.90;;;;;;6196270;23;20020;-86
2022/12/06 13:01:57;;;;;;;5.18;1.40;;;6.40;99.90;;;;;;6168329;22;20016;-87
2022/12/06 13:08:50;;;;;;;4.13;1.77;;;6.30;99.90;;;;;;6238619;22;20070;-87
2022/12/06 13:12:18;;;;;;;11.23;1.98;;;6.60;99.90;;;;;;6246487;22;20015;-87
2022/12/06 13:22:07;;;;;;;;;;;;;;;;;;;;;
2022/12/06 13:25:55;;;;;;;5.50;1.83;;;6.30;99.90;;;;;;6252098;22;20016;-88
2022/12/06 13:30:00;;;;;;;5.32;1.80;;;6.10;99.90;;;;;;6184570;22;20467;-87
2022/12/06 13:33:26;;;;;;;4.05;1.75;;;6.20;99.90;;;;;;6146026;23;20108;-87
2022/12/06 13:37:01;;;;;;;;;;;;;;;;;;;;;
2022/12/06 13:40:43;;;;;;;7.32;2.03;;;5.90;99.90;;;;;;6129426;23;20115;-88
2022/12/06 13:43:59;;;;;;;9.93;2.88;;;5.80;99.90;;;;;;6123303;23;20029;-87
2022/12/06 13:47:32;;;;;;;3.60;1.75;;;5.60;99.90;;;;;;6126321;23;20468;-87
2022/12/06 13:51:00;;;;;;;4.03;1.75;;;6.70;99.90;;;;;;6142880;23;20017;-87
2022/12/06 13:54:31;;;;;;;8.93;2.30;;;6.10;99.90;;;;;;6124350;23;20458;-87
2022/12/06 13:57:31;;;;;;;7.38;2.20;;;5.70;99.90;;;;;;6121695;23;20021;-87
2022/12/06 14:00:02;;;;;;;4.28;1.65;;;5.70;99.90;;;;;;6102638;23;20056;-87
2022/12/06 14:04:20;;;;;;;6.07;1.90;;;7.00;99.90;;;;;;6141935;22;20096;-86
2022/12/06 14:09:37;;;;;;;6.88;2.25;;;5.90;99.90;;;;;;6233446;22;20023;-87
2022/12/06 14:12:51;;;;;;;9.48;2.25;;;5.30;99.90;;;;;;6220276;22;20074;-88
2022/12/06 14:16:06;;;;;;;6.47;2.15;;;6.00;99.90;;;;;;6194297;22;20024;-88
2022/12/06 14:19:01;;;;;;;7.75;2.08;;;5.90;99.90;;;;;;6094557;22;20023;-87
2022/12/06 14:28:21;;;;;;;7.63;2.75;;;5.70;99.90;;;;;;6182346;23;20016;-86
2022/12/06 14:30:47;;;;;;;9.73;2.28;;;5.80;99.90;;;;;;6237886;23;20054;-87
2022/12/06 14:33:49;;;;;;;6.15;2.10;;;6.50;99.90;;;;;;6237579;23;20019;-87
2022/12/06 14:37:25;;;;;;;9.02;2.38;;;6.20;99.90;;;;;;6235658;23;20024;-87
2022/12/06 14:40:04;;;;;;;7.55;2.67;;;5.60;99.90;;;;;;6237706;22;20337;-87
2022/12/06 14:45:20;;;;;;;8.10;2.53;;;5.70;99.90;;;;;;6240897;23;20024;-86
2022/12/06 14:47:49;;;;;;;6.55;2.33;;;5.70;99.90;;;;;;6174972;23;20060;-86
2022/12/06 14:53:35;;;;;;;5.60;1.80;;;5.70;99.90;;;;;;6101471;23;20434;-86
2022/12/06 14:56:35;;;;;;;8.70;2.40;;;5.70;99.90;;;;;;6216436;23;20474;-86
2022/12/06 14:59:11;;;;;;;5.28;1.88;;;5.60;99.90;;;;;;6237749;23;20020;-87
2022/12/06 15:01:54;;;;;;;5.85;1.67;;;5.70;99.90;;;;;;6237981;23;20027;-86
2022/12/06 15:07:36;;;;;;;9.00;2.50;;;5.80;99.90;;;;;;6147724;23;20528;-86
2022/12/06 15:10:15;;;;;;;6.47;1.70;;;5.30;99.90;;;;;;6187217;23;20652;-88
2022/12/06 15:15:43;;;;;;;7.90;1.80;;;6.10;99.90;;;;;;6210575;23;20024;-86
2022/12/06 15:19:07;;;;;;;5.15;1.58;;;5.60;99.90;;;;;;6211650;23;20024;-87
2022/12/06 15:21:18;;;;;;;5.60;1.63;;;5.30;99.90;;;;;;6230360;23;20443;-86
2022/12/06 15:24:10;;;;;;;4.93;1.80;;;6.00;99.90;;;;;;6237368;23;20020;-87
2022/12/06 15:27:06;;;;;;;5.60;1.85;;;5.90;99.90;;;;;;6215895;23;20020;-87
2022/12/06 15:29:47;;;;;;;4.45;1.75;;;5.60;99.90;;;;;;6237014;23;20012;-88
2022/12/06 15:32:15;;;;;;;5.30;1.83;;;5.70;99.90;;;;;;6262083;22;20525;-86
2022/12/06 15:37:58;;;;;;;6.22;2.00;;;5.70;99.90;;;;;;6237048;23;20024;-85
2022/12/06 15:40:54;;;;;;;7.22;2.20;;;5.70;99.90;;;;;;6214905;23;20058;-87
2022/12/06 15:43:40;;;;;;;3.83;2.10;;;5.20;99.90;;;;;;6238923;23;20024;-88
2022/12/06 15:46:35;;;;;;;7.05;2.20;;;5.40;99.90;;;;;;6237512;23;20118;-87
2022/12/06 15:49:33;;;;;;;4.30;2.08;;;5.40;99.90;;;;;;6260787;22;20348;-87
2022/12/06 15:51:59;;;;;;;8.85;2.30;;;5.10;99.90;;;;;;6210864;23;20012;-86
2022/12/06 15:54:28;;;;;;;14.43;2.40;;;5.70;99.90;;;;;;6238863;23;20023;-87
2022/12/06 15:56:53;;;;;;;8.25;2.03;;;5.90;99.90;;;;;;6238006;23;20023;-87
2022/12/06 15:59:22;;;;;;;6.88;2.58;;;5.40;99.90;;;;;;6237717;23;20016;-87
2022/12/06 16:01:51;;;;;;;8.82;2.75;;;5.30;99.90;;;;;;6213128;23;20735;-87
2022/12/06 16:04:21;;;;;;;7.47;2.58;;;5.40;99.90;;;;;;6187487;23;20016;-86
2022/12/06 16:06:51;;;;;;;;;;;5.30;99.90;;;;;;6212568;22;20036;-87
2022/12/06 16:09:21;;;;;;;6.65;2.17;;;5.40;99.90;;;;;;6182997;23;19951;-87
2022/12/06 16:12:09;;;;;;;8.80;2.35;;;5.40;99.90;;;;;;6186352;23;20016;-87
2022/12/06 16:14:39;;;;;;;6.68;2.80;;;5.50;99.90;;;;;;6182903;23;20023;-86
2022/12/06 16:17:08;;;;;;;10.30;3.53;;;5.20;99.90;;;;;;6211108;23;20083;-86
2022/12/06 16:23:59;;;;;;;7.93;3.75;;;5.30;99.90;;;;;;6211564;23;20468;-86
2022/12/06 16:25:13;;;;;;;9.23;3.70;;;5.30;99.90;;;;;;6212922;23;20059;-87
2022/12/06 16:28:30;;;;;;;14.68;4.30;;;5.40;99.90;;;;;;6212903;23;20039;-87
2022/12/06 16:32:12;;;;;;;8.45;3.42;;;5.40;99.90;;;;;;6231142;23;20460;-88
2022/12/06 16:34:27;;;;;;;8.65;3.50;;;5.80;99.90;;;;;;6173696;23;20028;-87
2022/12/06 16:37:19;;;;;;;;;;;;;;;;;;;;;
2022/12/06 16:47:06;;;;;;;12.60;3.72;;;5.30;99.90;;;;;;6114490;23;20121;-87
2022/12/06 16:50:34;;;;;;;9.95;3.50;;;5.30;99.90;;;;;;6212224;23;20020;-87
2022/12/06 16:53:26;;;;;;;7.30;3.58;;;5.20;99.90;;;;;;6176971;23;20036;-88
2022/12/06 16:56:13;;;;;;;8.05;3.80;;;4.90;99.90;;;;;;6091118;23;20027;-87
2022/12/06 16:59:42;;;;;;;;;;;;;;;;;;;;;
2022/12/06 17:02:32;;;;;;;9.75;4.07;;;5.60;99.90;;;;;;6211287;23;20052;-87
2022/12/06 17:13:03;;;;;;;;;;;;;;;;;;;;;
2022/12/06 17:16:28;;;;;;;;;;;;;;;;;;;;;
2022/12/06 17:20:23;;;;;;;;;;;;;;;;;;;;;
2022/12/06 17:23:15;;;;;;;7.55;3.95;;;4.70;99.90;;;;;;6061460;23;20017;-87
2022/12/06 17:26:37;;;;;;;12.15;3.70;;;4.50;99.90;;;;;;6094096;23;20040;-85
2022/12/06 17:29:07;;;;;;;12.75;4.43;;;4.70;99.90;;;;;;5986717;23;20341;-84
2022/12/06 17:33:01;;;;;;;6.80;4.10;;;5.50;99.90;;;;;;6208591;23;20079;-85
2022/12/06 17:35:54;;;;;;;;;;;;;;;;;;;;;
2022/12/06 17:51:39;;;;;;;;;;;;;;;;;;;;;
2022/12/06 17:59:20;;;;;;;10.18;7.43;;;4.30;99.90;;;;;;6023690;23;20038;-85
2022/12/06 18:02:14;;;;;;;15.85;9.13;;;4.40;99.90;;;;;;6112488;23;20056;-85
2022/12/06 18:04:55;;;;;;;;;;;;;;;;;;;;;
2022/12/06 18:07:24;;;;;;;18.75;12.02;;;4.60;99.90;;;;;;6181570;23;20024;-82
2022/12/06 18:09:50;;;;;;;21.13;12.52;;;4.60;99.90;;;;;;6184054;23;20097;-82
2022/12/06 18:12:16;;;;;;;27.48;13.82;;;5.00;99.90;;;;;;6157268;23;20056;-83
2022/12/06 18:14:43;;;;;;;32.63;15.27;;;4.80;99.90;;;;;;6157086;23;20528;-82
2022/12/06 18:17:09;;;;;;;25.05;14.63;;;6.00;99.90;;;;;;6181280;23;20027;-83
2022/12/06 18:19:39;;;;;;;23.27;15.77;;;4.90;99.90;;;;;;6183006;23;20024;-82
2022/12/06 18:22:05;;;;;;;24.60;15.70;;;5.00;99.90;;;;;;6181898;23;20023;-83
2022/12/06 18:24:32;;;;;;;29.08;14.38;;;4.80;99.90;;;;;;6158673;23;20024;-82
2022/12/06 18:27:00;;;;;;;23.33;13.65;;;5.80;99.90;;;;;;6208621;23;20012;-82
2022/12/06 18:29:26;;;;;;;24.88;13.18;;;4.90;99.90;;;;;;6183544;23;20099;-82
2022/12/06 18:31:52;;;;;;;24.83;13.90;;;4.90;99.90;;;;;;6183170;23;20532;-84
2022/12/06 18:34:19;;;;;;;28.58;15.52;;;4.90;99.90;;;;;;6156373;23;20025;-82
2022/12/06 18:36:45;;;;;;;29.73;16.23;;;5.00;99.90;;;;;;6159231;23;20027;-82
2022/12/06 18:39:23;;;;;;;26.23;15.00;;;5.00;99.90;;;;;;6158173;23;20025;-82
2022/12/06 18:41:54;;;;;;;25.92;14.88;;;5.00;99.90;;;;;;6157427;23;20017;-82
2022/12/06 18:44:23;;;;;;;32.50;15.32;;;4.80;99.90;;;;;;6179263;23;20032;-84
2022/12/06 18:46:59;;;;;;;27.15;14.15;;;5.00;99.90;;;;;;6180078;23;20020;-82
2022/12/06 18:49:28;;;;;;;26.73;14.23;;;4.90;99.90;;;;;;6154853;23;20761;-83
2022/12/06 18:51:54;;;;;;;30.92;14.48;;;5.00;99.90;;;;;;6179841;23;20016;-82
2022/12/06 18:54:27;;;;;;;32.92;15.00;;;4.90;99.90;;;;;;6179929;23;20365;-83
2022/12/06 18:57:08;;;;;;;25.13;13.52;;;4.80;99.90;;;;;;6179096;23;20027;-82
2022/12/06 19:00:19;;;;;;;33.97;15.45;;;4.70;99.90;;;;;;6179764;23;20017;-83
2022/12/06 19:02:22;;;;;;;36.92;17.17;;;4.80;99.90;;;;;;6152918;23;20331;-82
2022/12/06 19:05:00;;;;;;;31.63;14.98;;;4.70;99.90;;;;;;6155465;23;20378;-82
2022/12/06 19:07:26;;;;;;;38.10;17.88;;;4.80;99.90;;;;;;6171750;23;20444;-82
2022/12/06 19:09:52;;;;;;;37.42;17.20;;;4.80;99.90;;;;;;6207712;23;20103;-82
2022/12/06 19:12:21;;;;;;;37.92;15.98;;;4.90;99.90;;;;;;6184084;23;20464;-82
2022/12/06 19:14:56;;;;;;;35.35;16.10;;;4.80;99.90;;;;;;6208786;23;20016;-82
2022/12/06 19:17:27;;;;;;;40.20;15.25;;;4.80;99.90;;;;;;6182061;23;20464;-82
2022/12/06 19:20:00;;;;;;;44.05;15.95;;;5.00;99.90;;;;;;6207869;23;20355;-82
2022/12/06 19:22:31;;;;;;;40.45;16.55;;;4.90;99.90;;;;;;6208908;23;20020;-82
2022/12/06 19:24:57;;;;;;;38.78;15.95;;;5.00;99.90;;;;;;6207771;23;20020;-84
2022/12/06 19:27:26;;;;;;;33.80;14.63;;;4.80;99.90;;;;;;6209217;23;20024;-82
2022/12/06 19:29:57;;;;;;;37.13;15.23;;;4.80;99.90;;;;;;6209851;23;20024;-82
2022/12/06 19:32:23;;;;;;;31.50;13.63;;;4.90;99.90;;;;;;6207447;23;20026;-82
2022/12/06 19:34:57;;;;;;;32.95;13.93;;;4.80;99.90;;;;;;6209849;23;20054;-83
2022/12/06 19:37:34;;;;;;;;;;;;;;;;;;;;;
2022/12/06 19:40:10;;;;;;;34.25;14.55;;;4.70;99.90;;;;;;6236937;23;20035;-83
2022/12/06 19:45:20;;;;;;;30.65;13.77;;;4.70;99.90;;;;;;6208662;23;20024;-83
2022/12/06 19:47:46;;;;;;;33.58;13.68;;;4.80;99.90;;;;;;6182736;23;20031;-82
2022/12/06 19:50:12;;;;;;;30.48;14.18;;;4.80;99.90;;;;;;6209888;23;20016;-83
2022/12/06 19:52:38;;;;;;;33.20;14.50;;;4.70;99.90;;;;;;6183532;23;20020;-82
2022/12/06 19:55:05;;;;;;;31.48;14.73;;;4.50;99.90;;;;;;6209037;23;20020;-82
2022/12/06 19:57:32;;;;;;;30.50;14.32;;;4.60;99.90;;;;;;6209926;23;20027;-82
2022/12/06 19:59:58;;;;;;;33.15;15.48;;;4.40;99.90;;;;;;6182981;23;20595;-82
2022/12/06 20:02:24;;;;;;;32.08;15.27;;;4.40;99.90;;;;;;6208902;23;20139;-83
2022/12/06 20:04:50;;;;;;;30.48;15.02;;;4.50;99.90;;;;;;6209638;23;20016;-82
2022/12/06 20:07:16;;;;;;;34.17;15.52;;;4.50;99.90;;;;;;6177979;23;20020;-83
2022/12/06 20:09:42;;;;;;;32.30;16.30;;;4.40;99.90;;;;;;6206646;23;20028;-83
2022/12/06 20:12:12;;;;;;;26.17;12.20;;;4.60;99.90;;;;;;6204064;23;20009;-82
2022/12/06 20:14:40;;;;;;;23.20;12.45;;;4.60;99.90;;;;;;6204159;23;20024;-81
2022/12/06 20:17:11;;;;;;;24.75;11.32;;;4.40;99.90;;;;;;6204070;23;20044;-81
2022/12/06 20:19:38;;;;;;;20.83;10.02;;;4.40;99.90;;;;;;6178696;23;20060;-82
2022/12/06 20:22:05;;;;;;;25.15;10.98;;;4.50;99.90;;;;;;6204253;23;20025;-82
2022/12/06 20:24:31;;;;;;;21.63;9.52;;;4.60;99.90;;;;;;6204742;23;20052;-81
2022/12/06 20:26:57;;;;;;;24.00;10.07;;;4.30;99.90;;;;;;6203033;23;20435;-81
2022/12/06 20:29:25;;;;;;;22.98;9.95;;;4.40;99.90;;;;;;6207570;23;20021;-80
2022/12/06 20:31:56;;;;;;;22.92;10.40;;;4.30;99.90;;;;;;6181683;23;20082;-81
2022/12/06 20:34:23;;;;;;;26.02;10.43;;;4.20;99.90;;;;;;6207683;23;20071;-81
2022/12/06 20:36:49;;;;;;;20.17;9.05;;;4.00;99.90;;;;;;6206116;23;20111;-81
2022/12/06 20:39:22;;;;;;;17.40;8.63;;;4.80;99.90;;;;;;6206819;23;20021;-81
2022/12/06 20:41:49;;;;;;;21.77;8.40;;;4.00;99.90;;;;;;6203125;23;20039;-82
2022/12/06 20:44:17;;;;;;;21.52;7.57;;;3.80;99.90;;;;;;6206615;23;20024;-82
2022/12/06 20:46:43;;;;;;;17.25;8.07;;;3.50;99.90;;;;;;6208227;23;20325;-82
2022/12/06 20:49:09;;;;;;;33.40;9.15;;;3.40;99.90;;;;;;6204793;23;20039;-83
2022/12/06 20:51:35;;;;;;;19.25;9.10;;;3.30;99.90;;;;;;6206480;23;20429;-82
2022/12/06 20:54:04;;;;;;;27.05;9.48;;;3.10;99.90;;;;;;6206273;23;20025;-82
2022/12/06 20:56:33;;;;;;;26.95;10.93;;;3.00;99.90;;;;;;6208754;23;20017;-82
2022/12/06 20:59:01;;;;;;;20.30;9.50;;;3.00;99.90;;;;;;6208970;23;20020;-83
2022/12/06 21:01:29;;;;;;;22.48;11.05;;;3.20;99.90;;;;;;6208702;23;20021;-82
2022/12/06 21:03:56;;;;;;;24.55;10.98;;;3.10;99.90;;;;;;6208860;23;20158;-81
2022/12/06 21:06:23;;;;;;;22.50;11.30;;;3.10;99.90;;;;;;6214058;23;20016;-81
2022/12/06 21:08:50;;;;;;;19.77;10.77;;;3.20;99.90;;;;;;6240530;23;20023;-82
2022/12/06 21:11:17;;;;;;;21.10;10.98;;;4.30;99.90;;;;;;6215007;23;20024;-82
2022/12/06 21:13:43;;;;;;;22.40;10.70;;;3.40;99.90;;;;;;6214108;23;20016;-82
2022/12/06 21:16:17;;;;;;;22.38;10.88;;;3.50;99.90;;;;;;6213849;23;20024;-81
2022/12/06 21:18:43;;;;;;;22.13;10.15;;;3.50;99.90;;;;;;6213189;23;20337;-82
2022/12/06 21:21:10;;;;;;;18.33;8.73;;;3.60;99.90;;;;;;6214193;23;20559;-81
2022/12/06 21:23:36;;;;;;;16.75;8.80;;;3.60;99.90;;;;;;6213894;23;20445;-82
2022/12/06 21:26:04;;;;;;;15.18;7.65;;;3.60;99.90;;;;;;6214560;23;20020;-81
2022/12/06 21:28:31;;;;;;;18.25;8.10;;;3.40;99.90;;;;;;6189413;23;20440;-82
2022/12/06 21:30:57;;;;;;;13.52;6.72;;;3.40;99.90;;;;;;6240296;23;20521;-82
2022/12/06 21:33:24;;;;;;;18.90;6.75;;;3.60;99.90;;;;;;6212974;23;20028;-82
2022/12/06 21:35:51;;;;;;;20.05;6.65;;;4.20;99.90;;;;;;6241365;23;20027;-82
2022/12/06 21:38:18;;;;;;;12.93;6.35;;;4.10;99.90;;;;;;6213484;23;20031;-82
2022/12/06 21:40:44;;;;;;;14.90;6.35;;;3.40;99.90;;;;;;6213818;23;20318;-82
2022/12/06 21:43:10;;;;;;;17.10;5.70;;;3.30;99.90;;;;;;6213970;23;20020;-82
2022/12/06 21:45:37;;;;;;;11.57;6.30;;;4.10;99.90;;;;;;6213372;23;20016;-82
2022/12/06 21:48:04;;;;;;;15.43;6.57;;;3.70;99.90;;;;;;6240161;23;20059;-81
2022/12/06 21:50:30;;;;;;;14.07;6.03;;;3.20;99.90;;;;;;6214706;23;20024;-82
2022/12/06 21:52:56;;;;;;;13.38;5.88;;;3.10;99.90;;;;;;6188170;23;20448;-82
2022/12/06 21:55:21;;;;;;;11.85;5.78;;;3.20;99.90;;;;;;6214348;23;20027;-82
2022/12/06 21:57:47;;;;;;;17.73;5.82;;;3.10;99.90;;;;;;6212501;23;20062;-82
2022/12/06 22:00:14;;;;;;;14.40;5.60;;;2.70;99.90;;;;;;6213968;23;20015;-82
2022/12/06 22:02:41;;;;;;;17.60;5.47;;;2.90;99.90;;;;;;6213510;23;20099;-81
2022/12/06 22:05:07;;;;;;;16.00;6.15;;;2.80;99.90;;;;;;6212647;23;20050;-82
2022/12/06 22:07:33;;;;;;;14.43;6.40;;;2.70;99.90;;;;;;6194752;23;20410;-81
2022/12/06 22:09:59;;;;;;;17.35;7.10;;;2.80;99.90;;;;;;6158586;23;20051;-82
2022/12/06 22:12:25;;;;;;;15.93;6.15;;;3.20;99.90;;;;;;6158227;23;20036;-82
2022/12/06 22:14:50;;;;;;;16.38;6.55;;;2.50;99.90;;;;;;6183812;23;20017;-82
2022/12/06 22:17:17;;;;;;;14.77;6.78;;;2.80;99.90;;;;;;6182779;23;20124;-82
2022/12/06 22:19:42;;;;;;;19.02;7.00;;;2.50;99.90;;;;;;6158507;23;20017;-82
2022/12/06 22:22:08;;;;;;;13.88;6.53;;;3.20;99.90;;;;;;6182999;23;20112;-81
2022/12/06 22:24:34;;;;;;;16.98;6.22;;;3.40;99.90;;;;;;6184378;23;20036;-82
2022/12/06 22:27:00;;;;;;;22.67;5.15;;;2.30;99.90;;;;;;6181789;23;20814;-82
2022/12/06 22:29:26;;;;;;;15.38;4.60;;;2.40;99.90;;;;;;6184177;23;20096;-82
2022/12/06 22:31:51;;;;;;;13.77;4.18;;;2.40;99.90;;;;;;6184126;23;20502;-82
2022/12/06 22:34:17;;;;;;;12.43;3.28;;;3.10;99.90;;;;;;6208081;23;20051;-82
2022/12/06 22:36:43;;;;;;;14.93;3.20;;;2.90;99.90;;;;;;6159421;23;20047;-82
2022/12/06 22:39:09;;;;;;;13.23;2.00;;;2.80;99.90;;;;;;6182984;23;20024;-82
2022/12/06 22:41:35;;;;;;;13.70;3.55;;;3.30;99.90;;;;;;6182507;23;20092;-82
2022/12/06 22:44:03;;;;;;;16.35;2.30;;;3.30;99.90;;;;;;6210224;23;20048;-82
2022/12/06 22:46:31;;;;;;;13.45;1.73;;;3.40;99.90;;;;;;6210431;23;20024;-82
2022/12/06 22:48:58;;;;;;;9.95;2.10;;;4.20;99.90;;;;;;6181892;23;20020;-82
2022/12/06 22:51:26;;;;;;;13.65;2.30;;;4.70;99.90;;;;;;6183292;23;20017;-81
2022/12/06 22:53:55;;;;;;;10.48;1.35;;;3.80;99.90;;;;;;6182113;23;20327;-82
2022/12/06 22:56:21;;;;;;;13.25;1.75;;;4.20;99.90;;;;;;6181731;23;20095;-82
2022/12/06 22:58:47;;;;;;;8.63;1.20;;;3.60;99.90;;;;;;6182468;23;20039;-82
2022/12/06 23:01:16;;;;;;;14.02;1.45;;;3.60;99.90;;;;;;6181813;23;20099;-82
2022/12/06 23:03:43;;;;;;;14.65;1.73;;;3.40;99.90;;;;;;6209154;23;20048;-82
2022/12/06 23:06:08;;;;;;;17.02;1.85;;;4.00;99.90;;;;;;6157849;23;20028;-82
2022/12/06 23:08:34;;;;;;;11.45;2.17;;;3.90;99.90;;;;;;6181857;23;20441;-82
2022/12/06 23:11:03;;;;;;;9.23;1.77;;;3.20;99.90;;;;;;6209397;23;20028;-82
2022/12/06 23:13:29;;;;;;;10.23;2.17;;;3.10;99.90;;;;;;6209668;23;20012;-82
2022/12/06 23:15:57;;;;;;;14.88;1.67;;;3.60;99.90;;;;;;6182033;23;20464;-81
2022/12/06 23:18:23;;;;;;;15.75;2.22;;;3.00;99.90;;;;;;6209331;23;20099;-81
2022/12/06 23:20:49;;;;;;;14.10;2.40;;;3.00;99.90;;;;;;6183000;23;20318;-81
2022/12/06 23:23:15;;;;;;;16.60;1.98;;;3.00;99.90;;;;;;6156676;23;20017;-82
2022/12/06 23:25:40;;;;;;;12.25;2.28;;;4.00;99.90;;;;;;6182882;23;20087;-82
2022/12/06 23:28:06;;;;;;;13.82;2.53;;;2.80;99.90;;;;;;6182387;23;20028;-81
2022/12/06 23:30:33;;;;;;;6.97;1.65;;;3.60;99.90;;;;;;6181961;23;20032;-82
2022/12/06 23:32:58;;;;;;;9.25;2.00;;;3.20;99.90;;;;;;6180970;23;20095;-82
2022/12/06 23:35:24;;;;;;;14.48;2.08;;;2.20;99.90;;;;;;6183254;23;20441;-82
2022/12/06 23:37:50;;;;;;;15.45;1.83;;;2.70;99.90;;;;;;6180940;23;20364;-81
2022/12/06 23:40:16;;;;;;;9.65;1.33;;;3.90;99.90;;;;;;6182268;23;20103;-82
2022/12/06 23:42:41;;;;;;;10.95;1.48;;;2.80;99.90;;;;;;6182258;23;20088;-82
2022/12/06 23:45:07;;;;;;;17.63;2.28;;;4.00;99.90;;;;;;6181125;23;20497;-82
2022/12/06 23:47:33;;;;;;;13.73;1.65;;;2.80;99.90;;;;;;6208449;23;20024;-82
2022/12/06 23:49:58;;;;;;;12.57;1.70;;;3.30;99.90;;;;;;6181094;23;20019;-82
2022/12/06 23:52:25;;;;;;;11.40;1.85;;;4.10;99.90;;;;;;6156892;23;20024;-82
2022/12/06 23:54:51;;;;;;;15.77;1.95;;;3.40;99.90;;;;;;6181965;23;20016;-82
2022/12/06 23:57:17;;;;;;;10.65;1.85;;;3.60;99.90;;;;;;6155857;23;20189;-82